Time;durP1;ratioP1;P1;durP2;ratioP2;P2;SDS_P1;SDS_P2;PMS_P1;PMS_P2;Temp;Humidity;BMP_temperature;BMP_pressure;BME280_temperature;BME280_humidity;BME280_pressure;Samples;Min_cycle;Max_cycle;Signal;HPM_P1;HPM_P2
2023/11/23 00:01:20;;;;;;;9.40;7.47;;;11.50;95.50;;;;;;4264944;27;20077;-56
2023/11/23 00:03:22;;;;;;;11.25;7.38;;;11.50;95.20;;;;;;4265816;27;20130;-57
2023/11/23 00:05:24;;;;;;;16.33;8.10;;;11.50;95.20;;;;;;4246952;27;20430;-57
2023/11/23 00:07:26;;;;;;;12.20;7.70;;;11.40;95.10;;;;;;4265811;27;20138;-56
2023/11/23 00:09:28;;;;;;;13.13;7.10;;;11.40;95.00;;;;;;4265931;27;20157;-57
2023/11/23 00:11:30;;;;;;;11.30;7.45;;;11.30;95.60;;;;;;4265393;27;20047;-57
2023/11/23 00:13:32;;;;;;;9.25;6.90;;;11.40;95.40;;;;;;4265502;27;20122;-56
2023/11/23 00:15:34;;;;;;;10.32;6.82;;;11.40;96.40;;;;;;4247182;27;20079;-57
2023/11/23 00:17:38;;;;;;;12.70;6.35;;;11.50;95.80;;;;;;4265381;27;20122;-55
2023/11/23 00:19:40;;;;;;;9.73;6.68;;;11.50;95.70;;;;;;4265110;27;20499;-56
2023/11/23 00:21:42;;;;;;;14.07;6.70;;;11.60;96.00;;;;;;4265262;27;20401;-57
2023/11/23 00:23:44;;;;;;;10.50;6.43;;;11.60;95.90;;;;;;4265405;27;20042;-57
2023/11/23 00:25:46;;;;;;;14.40;6.72;;;11.50;96.00;;;;;;4247016;27;20068;-57
2023/11/23 00:27:49;;;;;;;9.13;6.80;;;11.40;96.40;;;;;;4265507;27;20042;-56
2023/11/23 00:29:53;;;;;;;10.98;6.85;;;11.40;96.40;;;;;;4265853;27;20047;-57
2023/11/23 00:31:57;;;;;;;;;;;11.30;96.60;;;;;;4266329;27;20426;-60
2023/11/23 00:34:00;;;;;;;9.60;5.55;;;11.20;97.00;;;;;;4265019;27;19923;-57
2023/11/23 00:36:03;;;;;;;9.02;5.40;;;11.00;97.60;;;;;;4265119;27;20392;-57
2023/11/23 00:38:08;;;;;;;8.23;5.80;;;11.10;97.30;;;;;;4264935;27;20046;-56
2023/11/23 00:40:12;;;;;;;9.23;6.15;;;11.30;97.30;;;;;;4264920;27;20081;-57
2023/11/23 00:42:14;;;;;;;8.33;5.70;;;11.20;97.10;;;;;;4265190;27;20445;-57
2023/11/23 00:44:18;;;;;;;9.38;6.28;;;11.30;97.40;;;;;;4265074;27;20447;-57
2023/11/23 00:46:20;;;;;;;9.93;6.20;;;11.50;97.10;;;;;;4264718;27;20113;-55
2023/11/23 00:48:22;;;;;;;10.10;6.18;;;11.40;97.40;;;;;;4264631;27;20045;-56
2023/11/23 00:50:25;;;;;;;10.93;6.00;;;11.40;97.40;;;;;;4265024;27;20380;-57
2023/11/23 00:52:27;;;;;;;9.50;5.60;;;11.50;97.60;;;;;;4264858;27;20038;-57
2023/11/23 00:54:31;;;;;;;6.32;5.13;;;11.40;97.40;;;;;;4246521;27;20050;-54
2023/11/23 00:56:33;;;;;;;6.10;5.15;;;11.40;97.90;;;;;;4265060;27;20446;-55
2023/11/23 00:58:35;;;;;;;9.85;5.60;;;11.50;97.70;;;;;;4265007;27;20141;-56
2023/11/23 01:00:37;;;;;;;10.20;5.88;;;11.60;97.60;;;;;;4264793;27;20054;-54
2023/11/23 01:02:39;;;;;;;9.07;5.53;;;11.40;97.90;;;;;;4264444;27;20070;-54
2023/11/23 01:04:42;;;;;;;9.55;5.68;;;11.40;98.00;;;;;;4264699;27;20054;-53
2023/11/23 01:06:46;;;;;;;8.05;5.45;;;11.40;97.90;;;;;;4264703;27;20480;-56
2023/11/23 01:08:48;;;;;;;9.95;5.70;;;11.40;98.00;;;;;;4264849;27;20043;-58
2023/11/23 01:10:50;;;;;;;7.97;5.40;;;11.50;97.70;;;;;;4264740;27;20149;-56
2023/11/23 01:12:54;;;;;;;8.45;5.85;;;11.60;98.00;;;;;;4263759;27;20490;-56
2023/11/23 01:14:56;;;;;;;6.28;4.30;;;11.70;97.60;;;;;;4264524;27;20090;-56
2023/11/23 01:16:58;;;;;;;7.97;4.35;;;11.60;97.80;;;;;;4264232;27;20076;-60
2023/11/23 01:19:00;;;;;;;6.18;4.78;;;11.50;98.20;;;;;;4264706;27;20420;-56
2023/11/23 01:21:03;;;;;;;9.38;5.13;;;11.60;97.80;;;;;;4264773;27;20047;-56
2023/11/23 01:23:06;;;;;;;8.75;4.43;;;11.60;97.40;;;;;;4264775;27;20077;-56
2023/11/23 01:25:09;;;;;;;8.70;4.97;;;11.70;98.00;;;;;;4264607;27;20427;-56
2023/11/23 01:27:11;;;;;;;6.75;4.40;;;11.60;97.50;;;;;;4264627;27;20078;-57
2023/11/23 01:29:13;;;;;;;8.18;5.00;;;11.60;97.60;;;;;;4264551;27;20084;-57
2023/11/23 01:31:15;;;;;;;11.98;5.10;;;11.60;97.60;;;;;;4264897;27;20129;-61
2023/11/23 01:33:17;;;;;;;8.38;4.82;;;11.60;97.60;;;;;;4265140;27;20046;-58
2023/11/23 01:35:20;;;;;;;7.78;5.07;;;11.70;97.50;;;;;;4265079;27;20492;-57
2023/11/23 01:37:22;;;;;;;10.18;4.70;;;11.70;97.70;;;;;;4264741;27;20053;-57
2023/11/23 01:39:26;;;;;;;7.75;4.72;;;11.60;97.40;;;;;;4264536;27;20403;-59
2023/11/23 01:41:28;;;;;;;10.52;4.15;;;11.60;97.80;;;;;;4264309;27;20043;-57
2023/11/23 01:43:31;;;;;;;10.88;4.95;;;11.70;98.00;;;;;;4264435;27;20104;-57
2023/11/23 01:45:33;;;;;;;10.77;4.93;;;11.60;97.50;;;;;;4264684;27;20047;-54
2023/11/23 01:47:39;;;;;;;6.65;4.55;;;11.70;97.70;;;;;;4263960;27;20125;-55
2023/11/23 01:49:43;;;;;;;10.68;5.25;;;11.70;98.10;;;;;;4264402;27;20463;-56
2023/11/23 01:51:45;;;;;;;9.00;4.13;;;11.80;97.90;;;;;;4246348;27;20051;-57
2023/11/23 01:53:48;;;;;;;7.72;4.80;;;11.80;97.80;;;;;;4229282;28;20048;-56
2023/11/23 01:55:51;;;;;;;9.15;5.15;;;11.70;97.80;;;;;;4265241;27;20042;-57
2023/11/23 01:57:57;;;;;;;6.82;4.45;;;11.70;97.90;;;;;;4265254;27;20125;-57
2023/11/23 02:00:00;;;;;;;11.13;5.70;;;11.70;97.70;;;;;;4264554;27;20074;-57
2023/11/23 02:02:04;;;;;;;7.55;4.80;;;11.70;97.60;;;;;;4264141;27;20057;-55
2023/11/23 02:04:07;;;;;;;7.40;4.70;;;11.70;97.80;;;;;;4264116;27;20395;-57
2023/11/23 02:06:10;;;;;;;11.95;4.70;;;11.70;97.80;;;;;;4264270;27;20039;-57
2023/11/23 02:08:12;;;;;;;9.93;4.80;;;11.70;97.90;;;;;;4264318;27;20086;-56
2023/11/23 02:10:14;;;;;;;7.88;4.88;;;11.80;97.90;;;;;;4264140;27;20042;-58
2023/11/23 02:12:18;;;;;;;9.68;4.80;;;11.80;98.00;;;;;;4264354;27;20043;-55
2023/11/23 02:14:20;;;;;;;11.93;5.22;;;11.90;97.80;;;;;;4264078;27;20043;-55
2023/11/23 02:16:22;;;;;;;7.63;4.72;;;11.90;97.40;;;;;;4263929;27;20043;-62
2023/11/23 02:18:25;;;;;;;8.40;5.18;;;11.80;97.80;;;;;;4264077;27;20051;-55
2023/11/23 02:20:28;;;;;;;11.40;5.38;;;11.80;97.80;;;;;;4264270;27;20043;-56
2023/11/23 02:22:30;;;;;;;12.80;4.95;;;11.80;97.70;;;;;;4263928;27;20039;-55
2023/11/23 02:24:33;;;;;;;9.18;5.47;;;11.80;97.80;;;;;;4265547;27;20043;-56
2023/11/23 02:26:35;;;;;;;10.75;5.30;;;11.70;97.50;;;;;;4267312;27;20046;-56
2023/11/23 02:28:37;;;;;;;7.32;4.82;;;11.70;97.80;;;;;;4267256;27;20050;-57
2023/11/23 02:30:39;;;;;;;8.35;4.88;;;11.70;98.40;;;;;;4266690;27;20057;-54
2023/11/23 02:32:41;;;;;;;8.27;5.03;;;11.60;98.40;;;;;;4267215;27;20053;-57
2023/11/23 02:34:44;;;;;;;9.55;5.25;;;11.70;98.10;;;;;;4248841;27;20078;-57
2023/11/23 02:36:46;;;;;;;13.90;5.65;;;11.80;97.80;;;;;;4266961;27;20483;-56
2023/11/23 02:38:48;;;;;;;8.20;5.20;;;11.80;97.80;;;;;;4266907;27;20051;-56
2023/11/23 02:40:51;;;;;;;11.23;5.65;;;11.80;97.80;;;;;;4266900;27;20476;-56
2023/11/23 02:42:53;;;;;;;11.27;5.28;;;11.80;98.10;;;;;;4266893;27;20047;-56
2023/11/23 02:44:55;;;;;;;12.00;5.90;;;11.70;98.40;;;;;;4266722;27;20043;-57
2023/11/23 02:46:57;;;;;;;11.23;4.90;;;11.80;97.80;;;;;;4267235;27;20039;-56
2023/11/23 02:48:59;;;;;;;9.45;4.93;;;11.80;97.80;;;;;;4267341;27;20050;-60
2023/11/23 02:51:01;;;;;;;8.98;5.20;;;11.80;98.40;;;;;;4266760;27;20271;-57
2023/11/23 02:53:03;;;;;;;7.78;4.72;;;11.70;98.20;;;;;;4266893;27;20067;-56
2023/11/23 02:55:08;;;;;;;9.90;5.22;;;11.80;98.10;;;;;;4266866;27;20047;-56
2023/11/23 02:57:11;;;;;;;9.85;4.85;;;11.90;98.00;;;;;;4266692;27;20130;-56
2023/11/23 02:59:13;;;;;;;9.63;4.72;;;11.70;98.20;;;;;;4266380;27;20096;-56
2023/11/23 03:01:15;;;;;;;8.30;4.72;;;11.80;98.30;;;;;;4266790;27;20046;-57
2023/11/23 03:03:17;;;;;;;7.22;4.75;;;11.80;98.60;;;;;;4266040;27;20049;-56
2023/11/23 03:05:20;;;;;;;9.55;5.20;;;11.90;98.20;;;;;;4266580;27;20047;-56
2023/11/23 03:07:22;;;;;;;12.75;5.38;;;11.80;98.10;;;;;;4266645;27;20099;-56
2023/11/23 03:09:24;;;;;;;7.22;4.72;;;11.80;98.00;;;;;;4248048;27;20051;-56
2023/11/23 03:11:26;;;;;;;9.80;4.47;;;11.80;98.20;;;;;;4266531;27;20047;-56
2023/11/23 03:13:30;;;;;;;9.77;4.65;;;11.90;98.40;;;;;;4266145;27;20054;-57
2023/11/23 03:15:32;;;;;;;8.20;4.70;;;11.90;98.70;;;;;;4266454;27;20047;-58
2023/11/23 03:17:34;;;;;;;8.95;5.03;;;11.90;98.50;;;;;;4266141;27;20046;-56
2023/11/23 03:19:36;;;;;;;6.45;4.53;;;11.90;98.20;;;;;;4266197;27;20042;-57
2023/11/23 03:21:38;;;;;;;9.65;4.93;;;11.90;98.20;;;;;;4266267;27;20050;-56
2023/11/23 03:23:42;;;;;;;13.43;5.03;;;11.90;98.40;;;;;;4266562;27;20043;-56
2023/11/23 03:25:44;;;;;;;11.30;4.43;;;12.00;98.20;;;;;;4266167;27;20039;-56
2023/11/23 03:27:46;;;;;;;7.85;4.10;;;11.90;98.60;;;;;;4265986;27;20411;-56
2023/11/23 03:29:50;;;;;;;10.32;4.78;;;11.90;98.40;;;;;;4266096;27;20111;-55
2023/11/23 03:31:52;;;;;;;9.52;4.38;;;11.70;98.30;;;;;;4266182;27;20054;-54
2023/11/23 03:33:54;;;;;;;9.25;4.28;;;11.80;98.60;;;;;;4266136;27;20070;-54
2023/11/23 03:35:56;;;;;;;11.10;4.80;;;11.80;98.30;;;;;;4265172;27;20042;-54
2023/11/23 03:37:58;;;;;;;8.50;4.28;;;11.70;98.60;;;;;;4266057;27;20046;-55
2023/11/23 03:40:02;;;;;;;7.95;3.90;;;11.80;98.80;;;;;;4247218;27;20055;-57
2023/11/23 03:42:05;;;;;;;10.35;4.25;;;11.80;98.60;;;;;;4265697;27;20126;-57
2023/11/23 03:44:07;;;;;;;8.32;4.53;;;11.90;98.50;;;;;;4265904;27;20039;-58
2023/11/23 03:46:10;;;;;;;9.52;4.38;;;11.70;98.70;;;;;;4265857;27;20043;-57
2023/11/23 03:48:13;;;;;;;8.45;4.20;;;11.80;99.00;;;;;;4265874;27;20544;-58
2023/11/23 03:50:15;;;;;;;8.30;4.57;;;11.80;99.00;;;;;;4265689;27;20039;-57
2023/11/23 03:52:17;;;;;;;9.02;4.10;;;11.70;98.60;;;;;;4266015;27;20066;-54
2023/11/23 03:54:19;;;;;;;10.02;4.35;;;11.70;98.70;;;;;;4266082;27;20054;-53
2023/11/23 03:56:21;;;;;;;8.23;4.20;;;11.70;98.80;;;;;;4265391;27;20042;-54
2023/11/23 03:58:23;;;;;;;9.05;4.57;;;11.80;98.90;;;;;;4265793;27;20134;-54
2023/11/23 04:00:25;;;;;;;11.75;4.75;;;11.70;98.90;;;;;;4265942;27;20135;-58
2023/11/23 04:02:28;;;;;;;6.65;4.00;;;11.70;98.90;;;;;;4265864;27;20126;-57
2023/11/23 04:04:31;;;;;;;10.00;4.43;;;11.80;98.90;;;;;;4265570;27;20053;-56
2023/11/23 04:06:33;;;;;;;9.55;3.85;;;11.80;98.80;;;;;;4264934;27;20065;-56
2023/11/23 04:08:35;;;;;;;7.57;4.10;;;11.80;99.00;;;;;;4265540;27;20053;-56
2023/11/23 04:10:37;;;;;;;8.75;4.00;;;11.90;98.60;;;;;;4265443;27;20053;-56
2023/11/23 04:12:39;;;;;;;10.15;4.78;;;11.80;98.80;;;;;;4265248;27;20767;-56
2023/11/23 04:14:41;;;;;;;8.50;4.00;;;11.80;98.90;;;;;;4265459;27;20571;-55
2023/11/23 04:16:44;;;;;;;7.55;4.60;;;11.90;99.20;;;;;;4265474;27;20069;-55
2023/11/23 04:18:48;;;;;;;4.97;3.70;;;12.00;98.80;;;;;;4265317;27;20402;-56
2023/11/23 04:20:50;;;;;;;7.07;3.90;;;12.00;99.00;;;;;;4265240;27;20122;-56
2023/11/23 04:22:52;;;;;;;10.00;4.32;;;12.00;99.10;;;;;;4265362;27;20047;-56
2023/11/23 04:24:54;;;;;;;8.05;3.78;;;12.00;99.00;;;;;;4265406;27;20049;-56
2023/11/23 04:26:56;;;;;;;6.07;3.72;;;11.90;99.50;;;;;;4264822;27;20043;-57
2023/11/23 04:28:58;;;;;;;8.70;4.03;;;11.90;99.40;;;;;;4265405;27;20043;-56
2023/11/23 04:31:00;;;;;;;7.50;4.30;;;12.00;99.30;;;;;;4265179;27;20038;-56
2023/11/23 04:33:02;;;;;;;11.57;4.40;;;11.90;99.00;;;;;;4265100;27;20042;-57
2023/11/23 04:35:07;;;;;;;7.63;4.22;;;12.00;99.40;;;;;;4265425;27;20042;-59
2023/11/23 04:37:09;;;;;;;;;;;12.00;99.20;;;;;;4265810;27;20047;-56
2023/11/23 04:39:12;;;;;;;7.90;3.70;;;11.90;99.40;;;;;;4264938;27;19919;-57
2023/11/23 04:41:15;;;;;;;6.72;3.95;;;11.80;99.70;;;;;;4264885;27;20084;-57
2023/11/23 04:43:17;;;;;;;7.53;3.40;;;11.80;99.90;;;;;;4265202;27;20126;-56
2023/11/23 04:45:19;;;;;;;7.80;4.40;;;12.00;99.90;;;;;;4264940;27;20038;-56
2023/11/23 04:47:23;;;;;;;8.40;3.97;;;12.00;99.40;;;;;;4264561;27;20042;-56
2023/11/23 04:49:25;;;;;;;6.43;3.65;;;12.00;99.60;;;;;;4264938;27;20103;-56
2023/11/23 04:51:28;;;;;;;8.18;3.97;;;12.00;99.50;;;;;;4264922;27;20454;-56
2023/11/23 04:53:30;;;;;;;9.43;4.10;;;12.00;99.80;;;;;;4264966;27;20042;-57
2023/11/23 04:55:32;;;;;;;9.43;3.83;;;12.00;99.40;;;;;;4264641;27;20046;-56
2023/11/23 04:57:34;;;;;;;10.63;4.35;;;12.00;99.80;;;;;;4246621;27;20054;-58
2023/11/23 04:59:36;;;;;;;11.52;3.97;;;12.00;99.50;;;;;;4264514;27;20043;-56
2023/11/23 05:01:38;;;;;;;11.40;4.05;;;11.90;99.70;;;;;;4264657;27;20496;-57
2023/11/23 05:03:40;;;;;;;9.85;3.85;;;12.00;99.80;;;;;;4264875;27;20453;-56
2023/11/23 05:05:43;;;;;;;10.15;4.18;;;12.00;99.90;;;;;;4264530;27;20046;-56
2023/11/23 05:07:46;;;;;;;8.63;4.15;;;12.10;99.80;;;;;;4264524;27;20480;-56
2023/11/23 05:09:48;;;;;;;8.75;3.72;;;12.10;99.70;;;;;;4264420;27;20126;-56
2023/11/23 05:11:50;;;;;;;9.90;4.65;;;12.10;99.80;;;;;;4264687;27;20109;-56
2023/11/23 05:13:52;;;;;;;6.60;3.55;;;12.30;99.80;;;;;;4246456;27;20058;-57
2023/11/23 05:15:55;;;;;;;7.22;3.70;;;12.20;99.80;;;;;;4264898;27;20043;-58
2023/11/23 05:17:57;;;;;;;12.88;4.05;;;12.20;99.70;;;;;;4264752;27;20070;-57
2023/11/23 05:19:59;;;;;;;8.40;3.55;;;12.30;99.90;;;;;;4264593;27;20051;-56
2023/11/23 05:22:02;;;;;;;9.07;3.90;;;12.20;99.90;;;;;;4264602;27;20057;-56
2023/11/23 05:24:06;;;;;;;11.38;4.80;;;12.20;99.80;;;;;;4264135;27;20376;-57
2023/11/23 05:26:08;;;;;;;7.90;4.25;;;12.10;99.80;;;;;;4265011;27;20043;-56
2023/11/23 05:28:11;;;;;;;9.25;3.75;;;12.10;99.90;;;;;;4264598;27;20053;-57
2023/11/23 05:30:13;;;;;;;5.93;3.35;;;12.20;99.90;;;;;;4264575;27;20061;-56
2023/11/23 05:32:15;;;;;;;8.65;4.18;;;12.20;99.90;;;;;;4264522;27;20560;-57
2023/11/23 05:34:17;;;;;;;8.45;4.20;;;12.10;99.90;;;;;;4264552;27;20501;-56
2023/11/23 05:36:20;;;;;;;8.80;4.25;;;12.00;99.90;;;;;;4264516;27;20130;-57
2023/11/23 05:38:22;;;;;;;6.47;3.88;;;11.90;99.90;;;;;;4263994;27;20480;-56
2023/11/23 05:40:25;;;;;;;12.23;4.15;;;12.00;99.90;;;;;;4264387;27;20047;-57
2023/11/23 05:42:28;;;;;;;9.43;4.43;;;12.10;99.90;;;;;;4264345;27;20071;-57
2023/11/23 05:44:30;;;;;;;9.52;3.95;;;12.10;99.90;;;;;;4264512;27;20480;-57
2023/11/23 05:46:32;;;;;;;9.60;3.70;;;12.10;99.90;;;;;;4264312;27;20189;-57
2023/11/23 05:48:34;;;;;;;7.47;3.70;;;12.10;99.90;;;;;;4264779;27;20043;-56
2023/11/23 05:50:36;;;;;;;6.65;3.80;;;12.10;99.90;;;;;;4264423;27;20083;-56
2023/11/23 05:52:39;;;;;;;9.43;4.25;;;12.10;99.90;;;;;;4264197;27;20071;-56
2023/11/23 05:54:41;;;;;;;9.57;4.47;;;12.20;99.90;;;;;;4264137;27;20053;-57
2023/11/23 05:56:45;;;;;;;8.70;3.60;;;12.30;99.90;;;;;;4264278;27;20588;-57
2023/11/23 05:58:47;;;;;;;7.78;3.58;;;12.30;99.90;;;;;;4264511;27;20123;-57
2023/11/23 06:00:49;;;;;;;7.13;3.60;;;12.30;99.90;;;;;;4249217;27;20882;-57
2023/11/23 06:03:08;;;;;;;5.40;3.05;;;12.30;99.90;;;;;;4268119;27;20043;-56
2023/11/23 06:05:10;;;;;;;9.25;3.42;;;12.30;99.90;;;;;;4267894;27;20046;-57
2023/11/23 06:07:13;;;;;;;9.55;4.18;;;12.30;99.90;;;;;;4267498;27;20187;-56
2023/11/23 06:09:15;;;;;;;7.70;3.75;;;12.20;99.90;;;;;;4267639;27;20054;-58
2023/11/23 06:11:18;;;;;;;9.50;4.07;;;12.20;99.90;;;;;;4267677;27;20068;-60
2023/11/23 06:13:21;;;;;;;9.68;4.07;;;12.20;99.90;;;;;;4267589;27;20050;-57
2023/11/23 06:15:23;;;;;;;9.63;3.80;;;12.20;99.90;;;;;;4249331;27;20531;-57
2023/11/23 06:17:25;;;;;;;8.27;3.42;;;12.10;99.90;;;;;;4267385;27;20045;-57
2023/11/23 06:19:27;;;;;;;8.02;3.58;;;12.10;99.90;;;;;;4267370;27;20114;-57
2023/11/23 06:21:29;;;;;;;6.28;3.50;;;12.30;99.90;;;;;;4267128;27;20399;-57
2023/11/23 06:23:32;;;;;;;11.00;3.65;;;12.20;99.90;;;;;;4267483;27;20053;-57
2023/11/23 06:25:34;;;;;;;10.98;3.67;;;12.30;99.90;;;;;;4267569;27;20050;-60
2023/11/23 06:27:36;;;;;;;8.38;3.72;;;12.30;99.90;;;;;;4250040;27;20141;-56
2023/11/23 06:29:39;;;;;;;8.07;3.95;;;12.30;99.90;;;;;;4268370;27;20066;-57
2023/11/23 06:31:41;;;;;;;7.30;3.55;;;12.20;99.90;;;;;;4268480;27;20108;-56
2023/11/23 06:33:43;;;;;;;5.22;3.17;;;12.20;99.90;;;;;;4267660;27;20099;-61
2023/11/23 06:35:46;;;;;;;6.75;3.70;;;12.40;99.90;;;;;;4267337;27;20073;-56
2023/11/23 06:37:48;;;;;;;11.35;4.55;;;12.40;99.90;;;;;;4267190;27;20103;-56
2023/11/23 06:39:54;;;;;;;9.52;4.30;;;12.30;99.90;;;;;;4267781;27;20389;-56
2023/11/23 06:41:58;;;;;;;7.10;4.00;;;12.30;99.90;;;;;;4268026;27;20060;-56
2023/11/23 06:44:00;;;;;;;9.93;4.05;;;12.30;99.90;;;;;;4267054;27;20559;-58
2023/11/23 06:46:04;;;;;;;10.23;3.50;;;12.30;99.90;;;;;;4266831;27;20047;-57
2023/11/23 06:48:07;;;;;;;8.40;3.97;;;12.30;99.90;;;;;;4267140;27;20118;-57
2023/11/23 06:50:09;;;;;;;7.03;3.72;;;12.30;99.90;;;;;;4267011;27;20443;-56
2023/11/23 06:52:11;;;;;;;8.10;3.88;;;12.30;99.90;;;;;;4266459;27;20049;-55
2023/11/23 06:54:13;;;;;;;8.30;4.03;;;12.30;99.90;;;;;;4266823;27;20157;-61
2023/11/23 06:56:16;;;;;;;9.23;3.60;;;12.30;99.90;;;;;;4266950;27;20454;-57
2023/11/23 06:58:18;;;;;;;9.05;3.88;;;12.40;99.90;;;;;;4266720;27;20054;-56
2023/11/23 07:00:23;;;;;;;9.57;4.00;;;12.30;99.90;;;;;;4266621;27;20412;-56
2023/11/23 07:02:28;;;;;;;7.82;3.78;;;12.30;99.90;;;;;;4266514;27;20035;-55
2023/11/23 07:04:30;;;;;;;;;;;12.30;99.90;;;;;;4266705;27;20480;-56
2023/11/23 07:06:32;;;;;;;6.70;3.65;;;12.30;99.90;;;;;;4266302;27;19919;-55
2023/11/23 07:08:35;;;;;;;10.00;3.70;;;12.20;99.90;;;;;;4266602;27;20046;-56
2023/11/23 07:10:41;;;;;;;11.27;4.00;;;12.20;99.90;;;;;;4266622;27;20122;-56
2023/11/23 07:12:44;;;;;;;6.40;3.90;;;12.20;99.90;;;;;;4266692;27;20074;-55
2023/11/23 07:14:46;;;;;;;11.32;3.97;;;12.30;99.90;;;;;;4266408;27;20051;-55
2023/11/23 07:16:51;;;;;;;12.52;4.00;;;12.30;99.90;;;;;;4248345;27;20473;-57
2023/11/23 07:18:55;;;;;;;6.43;3.13;;;12.20;99.90;;;;;;4266421;27;20112;-57
2023/11/23 07:20:58;;;;;;;6.30;3.35;;;12.20;99.90;;;;;;4265957;27;20500;-56
2023/11/23 07:23:00;;;;;;;7.70;3.40;;;12.30;99.90;;;;;;4266507;27;20046;-57
2023/11/23 07:25:03;;;;;;;7.95;3.67;;;12.30;99.90;;;;;;4266298;27;20039;-56
2023/11/23 07:27:05;;;;;;;6.50;3.45;;;12.30;99.90;;;;;;4266110;27;20092;-56
2023/11/23 07:29:08;;;;;;;9.27;2.85;;;12.30;99.90;;;;;;4248049;27;20077;-55
2023/11/23 07:31:10;;;;;;;5.55;2.90;;;12.30;99.90;;;;;;4266247;27;20103;-57
2023/11/23 07:33:13;;;;;;;7.53;3.17;;;12.20;99.90;;;;;;4248192;27;20464;-55
2023/11/23 07:35:17;;;;;;;10.27;2.90;;;12.30;99.90;;;;;;4265452;27;20139;-56
2023/11/23 07:37:19;;;;;;;6.47;3.25;;;12.30;99.90;;;;;;4265995;27;20072;-55
2023/11/23 07:39:22;;;;;;;9.00;3.58;;;12.20;99.90;;;;;;4266010;27;20083;-57
2023/11/23 07:41:24;;;;;;;8.10;3.03;;;12.30;99.90;;;;;;4266045;27;20047;-56
2023/11/23 07:43:26;;;;;;;5.80;2.83;;;12.30;99.90;;;;;;4266049;27;20047;-56
2023/11/23 07:45:29;;;;;;;7.32;3.60;;;12.30;99.90;;;;;;4266195;27;20077;-56
2023/11/23 07:47:31;;;;;;;8.43;2.90;;;12.40;99.90;;;;;;4265937;27;20043;-57
2023/11/23 07:49:33;;;;;;;7.20;3.10;;;12.60;99.90;;;;;;4265452;27;20111;-56
2023/11/23 07:51:37;;;;;;;5.63;3.45;;;12.50;99.90;;;;;;4265942;27;20049;-57
2023/11/23 07:53:39;;;;;;;8.70;3.60;;;12.60;99.90;;;;;;4265687;27;20042;-57
2023/11/23 07:55:43;;;;;;;4.38;2.95;;;12.70;99.90;;;;;;4266097;27;20050;-56
2023/11/23 07:57:51;;;;;;;6.40;3.00;;;12.60;99.90;;;;;;4266087;27;20479;-58
2023/11/23 07:59:57;;;;;;;10.02;3.45;;;12.60;99.90;;;;;;4265870;27;20046;-57
2023/11/23 08:02:02;;;;;;;9.35;3.42;;;12.60;99.90;;;;;;4265651;27;20070;-57
2023/11/23 08:04:04;;;;;;;9.00;2.75;;;12.70;99.90;;;;;;4265210;27;20050;-57
2023/11/23 08:06:07;;;;;;;5.05;2.75;;;12.70;99.90;;;;;;4265947;27;20046;-56
2023/11/23 08:08:10;;;;;;;5.20;2.70;;;12.80;99.90;;;;;;4265918;27;20049;-57
2023/11/23 08:10:15;;;;;;;6.03;2.67;;;12.80;99.90;;;;;;4265618;27;20038;-55
2023/11/23 08:12:18;;;;;;;9.30;2.60;;;13.00;99.90;;;;;;4247191;27;20039;-61
2023/11/23 08:14:21;;;;;;;5.05;2.80;;;13.10;99.90;;;;;;4247425;27;20463;-58
2023/11/23 08:16:23;;;;;;;6.47;2.80;;;13.10;99.90;;;;;;4265690;27;20038;-56
2023/11/23 08:18:25;;;;;;;9.45;3.05;;;13.10;99.90;;;;;;4265056;27;20039;-56
2023/11/23 08:20:44;;;;;;;9.90;3.80;;;13.10;99.90;;;;;;4249548;27;20496;-56
2023/11/23 08:22:46;;;;;;;12.70;3.30;;;13.00;99.90;;;;;;4264975;27;20051;-56
2023/11/23 08:24:49;;;;;;;8.63;3.40;;;13.00;99.90;;;;;;4265236;27;20356;-56
2023/11/23 08:26:52;;;;;;;6.93;3.30;;;12.90;99.90;;;;;;4265442;27;20077;-57
2023/11/23 08:28:54;;;;;;;9.35;2.90;;;13.00;99.90;;;;;;4265404;27;20047;-57
2023/11/23 08:30:57;;;;;;;5.50;2.60;;;13.10;99.90;;;;;;4265810;27;20371;-56
2023/11/23 08:32:59;;;;;;;6.95;2.60;;;13.10;99.90;;;;;;4265323;27;20046;-56
2023/11/23 08:35:03;;;;;;;7.15;2.83;;;13.10;99.90;;;;;;4265524;27;20078;-56
2023/11/23 08:37:05;;;;;;;10.10;3.50;;;13.00;99.90;;;;;;4265273;27;20043;-55
2023/11/23 08:39:11;;;;;;;8.32;2.95;;;13.10;99.90;;;;;;4264890;27;20059;-57
2023/11/23 08:41:18;;;;;;;11.82;3.08;;;13.10;99.90;;;;;;4265047;27;20046;-57
2023/11/23 08:43:20;;;;;;;7.53;2.58;;;13.10;99.90;;;;;;4265195;27;20042;-56
2023/11/23 08:45:22;;;;;;;8.15;3.10;;;13.00;99.90;;;;;;4265246;27;20067;-57
2023/11/23 08:47:24;;;;;;;11.88;2.88;;;13.10;99.90;;;;;;4264558;27;20053;-56
2023/11/23 08:49:27;;;;;;;14.45;3.20;;;13.10;99.90;;;;;;4265209;27;20507;-58
2023/11/23 08:51:29;;;;;;;7.28;2.90;;;13.20;99.90;;;;;;4264926;27;20103;-56
2023/11/23 08:53:31;;;;;;;6.68;3.17;;;13.20;99.90;;;;;;4264783;27;20039;-56
2023/11/23 08:55:34;;;;;;;7.78;3.20;;;13.20;99.90;;;;;;4265134;27;20050;-55
2023/11/23 08:57:37;;;;;;;4.95;2.70;;;13.20;99.90;;;;;;4264955;27;20414;-56
2023/11/23 08:59:40;;;;;;;5.50;2.50;;;13.20;99.90;;;;;;4265028;27;20480;-56
2023/11/23 09:01:43;;;;;;;10.75;3.13;;;13.20;99.90;;;;;;4264340;27;20047;-57
2023/11/23 09:03:48;;;;;;;9.32;3.50;;;13.30;99.90;;;;;;4264529;27;20045;-57
2023/11/23 09:05:51;;;;;;;10.48;3.70;;;13.30;99.90;;;;;;4264721;27;20068;-56
2023/11/23 09:07:53;;;;;;;7.85;2.80;;;13.20;99.90;;;;;;4264771;27;20042;-56
2023/11/23 09:09:56;;;;;;;5.32;3.03;;;13.20;99.90;;;;;;4264652;27;20071;-56
2023/11/23 09:11:59;;;;;;;7.22;2.88;;;13.10;99.90;;;;;;4264889;27;20126;-56
2023/11/23 09:14:02;;;;;;;11.50;3.13;;;13.10;99.90;;;;;;4264500;27;20074;-56
2023/11/23 09:16:06;;;;;;;9.48;3.15;;;13.20;99.90;;;;;;4264282;27;20118;-56
2023/11/23 09:18:08;;;;;;;17.90;9.57;;;13.20;99.90;;;;;;4264921;27;20054;-57
2023/11/23 09:20:13;;;;;;;14.50;4.40;;;13.20;99.90;;;;;;4264609;27;20470;-55
2023/11/23 09:22:15;;;;;;;8.43;3.20;;;13.20;99.90;;;;;;4264842;27;20499;-56
2023/11/23 09:24:17;;;;;;;8.10;3.20;;;13.20;99.90;;;;;;4264713;27;20039;-56
2023/11/23 09:26:19;;;;;;;5.90;3.22;;;13.40;99.90;;;;;;4264510;27;20039;-56
2023/11/23 09:28:22;;;;;;;7.57;3.13;;;13.40;99.90;;;;;;4264430;27;20042;-56
2023/11/23 09:30:25;;;;;;;8.20;3.55;;;13.30;99.90;;;;;;4264329;27;20049;-56
2023/11/23 09:32:30;;;;;;;13.25;3.78;;;13.30;99.90;;;;;;4264618;27;20039;-56
2023/11/23 09:34:32;;;;;;;7.47;3.92;;;13.30;99.90;;;;;;4266127;27;20042;-57
2023/11/23 09:36:34;;;;;;;9.60;3.95;;;13.20;99.90;;;;;;4268053;27;20067;-58
2023/11/23 09:38:36;;;;;;;6.20;3.33;;;13.10;99.90;;;;;;4267892;27;20057;-57
2023/11/23 09:40:39;;;;;;;10.32;3.90;;;13.10;99.90;;;;;;4268178;27;20352;-56
2023/11/23 09:42:47;;;;;;;5.20;3.63;;;13.20;99.90;;;;;;4268018;27;20046;-56
2023/11/23 09:44:54;;;;;;;9.38;4.47;;;13.30;99.90;;;;;;4267723;27;20536;-57
2023/11/23 09:46:58;;;;;;;9.75;3.53;;;13.30;99.90;;;;;;4268022;27;20050;-57
2023/11/23 09:49:02;;;;;;;11.50;5.97;;;13.40;99.90;;;;;;4267881;27;20042;-56
2023/11/23 09:51:05;;;;;;;12.40;8.18;;;13.30;99.90;;;;;;4267782;27;20046;-57
2023/11/23 09:53:11;;;;;;;12.55;4.15;;;13.20;99.90;;;;;;4268048;27;20475;-57
2023/11/23 09:55:17;;;;;;;6.63;4.38;;;13.10;99.90;;;;;;4268066;27;20416;-55
2023/11/23 09:57:19;;;;;;;6.38;4.25;;;13.30;99.90;;;;;;4268013;27;20049;-58
2023/11/23 09:59:23;;;;;;;7.10;4.07;;;13.30;99.90;;;;;;4267344;27;20428;-56
2023/11/23 10:01:26;;;;;;;7.15;4.07;;;13.30;99.90;;;;;;4267998;27;20043;-57
2023/11/23 10:03:33;;;;;;;6.75;3.75;;;13.40;99.90;;;;;;4267699;27;20047;-56
2023/11/23 10:05:38;;;;;;;7.72;3.78;;;13.30;99.90;;;;;;4264236;27;20446;-57
2023/11/23 10:07:42;;;;;;;4.50;3.30;;;13.40;99.90;;;;;;4267573;27;20045;-57
2023/11/23 10:09:44;;;;;;;5.20;3.60;;;13.90;99.90;;;;;;4267698;27;20043;-56
2023/11/23 10:11:47;;;;;;;7.47;3.45;;;14.20;99.90;;;;;;4265491;27;20172;-57
2023/11/23 10:13:49;;;;;;;5.63;3.83;;;14.30;99.90;;;;;;4265849;27;20407;-56
2023/11/23 10:15:51;;;;;;;4.88;2.88;;;14.30;99.90;;;;;;4266767;27;20383;-57
2023/11/23 10:17:53;;;;;;;8.15;2.78;;;14.40;99.90;;;;;;4266763;27;20074;-57
2023/11/23 10:20:06;;;;;;;7.45;3.33;;;14.50;99.90;;;;;;4266544;27;20480;-57
2023/11/23 10:22:08;;;;;;;6.40;3.10;;;14.40;99.90;;;;;;4266522;27;20054;-56
2023/11/23 10:24:12;;;;;;;6.22;3.97;;;14.50;99.90;;;;;;4266549;27;20066;-56
2023/11/23 10:26:14;;;;;;;4.45;3.35;;;14.40;99.90;;;;;;4266408;27;20050;-56
2023/11/23 10:28:20;;;;;;;7.75;3.53;;;14.50;99.90;;;;;;4266078;27;20046;-56
2023/11/23 10:30:23;;;;;;;6.30;4.43;;;14.60;99.90;;;;;;4266527;27;20067;-57
2023/11/23 10:32:30;;;;;;;5.85;3.70;;;14.70;99.90;;;;;;4266324;27;20049;-55
2023/11/23 10:34:36;;;;;;;6.50;3.08;;;15.00;99.90;;;;;;4266433;27;20133;-56
2023/11/23 10:36:41;;;;;;;6.32;3.50;;;14.90;99.90;;;;;;4266122;27;20481;-56
2023/11/23 10:38:43;;;;;;;;;;;14.80;99.90;;;;;;4267038;27;20107;-57